createdAt,value
2022-12-11T00:00:34.170Z,14.00
2022-12-11T00:03:04.948Z,15.98
2022-12-11T00:05:36.206Z,16.90
2022-12-11T00:08:09.497Z,15.52
2022-12-11T00:10:40.580Z,12.77
2022-12-11T00:13:11.097Z,12.85
2022-12-11T00:15:41.785Z,17.08
2022-12-11T00:18:15.310Z,15.32
2022-12-11T00:20:46.271Z,14.88
2022-12-11T00:23:19.398Z,19.75
2022-12-11T00:25:51.137Z,16.90
2022-12-11T00:28:21.838Z,16.08
2022-12-11T00:30:52.849Z,21.23
2022-12-11T00:33:23.342Z,16.17
2022-12-11T00:35:54.011Z,18.40
2022-12-11T00:38:27.318Z,14.50
2022-12-11T00:41:01.682Z,15.82
2022-12-11T00:43:32.184Z,15.90
2022-12-11T00:46:02.982Z,17.77
2022-12-11T00:48:33.730Z,20.33
2022-12-11T00:51:04.374Z,24.95
2022-12-11T00:53:37.587Z,25.45
2022-12-11T00:56:14.484Z,25.00
2022-12-11T00:58:45.290Z,21.05
2022-12-11T01:01:22.760Z,25.23
2022-12-11T01:03:53.747Z,18.35
2022-12-11T01:06:26.669Z,17.52
2022-12-11T01:09:12.754Z,16.95
2022-12-11T01:11:45.780Z,22.70
2022-12-11T01:14:16.645Z,20.02
2022-12-11T01:16:47.414Z,18.38
2022-12-11T01:19:18.042Z,15.38
2022-12-11T01:21:48.629Z,19.23
2022-12-11T01:24:21.830Z,17.50
2022-12-11T01:26:52.358Z,16.60
2022-12-11T01:29:22.859Z,22.23
2022-12-11T01:31:53.423Z,20.02
2022-12-11T01:34:24.202Z,17.70
2022-12-11T01:36:55.670Z,21.70
2022-12-11T01:39:29.035Z,20.60
2022-12-11T01:42:01.009Z,18.75
2022-12-11T01:45:01.420Z,21.75
2022-12-11T01:47:33.386Z,15.65
2022-12-11T01:50:03.978Z,27.23
2022-12-11T01:52:34.630Z,17.80
2022-12-11T01:55:09.543Z,21.42
2022-12-11T02:00:12.694Z,19.75
2022-12-11T02:02:48.642Z,25.42
2022-12-11T02:05:19.245Z,16.13
2022-12-11T02:07:53.570Z,17.65
2022-12-11T02:10:31.837Z,13.67
2022-12-11T02:13:06.092Z,20.95
2022-12-11T02:15:41.102Z,14.25
2022-12-11T02:18:20.093Z,17.27
2022-12-11T02:20:57.711Z,23.85
2022-12-11T02:24:07.601Z,13.75
2022-12-11T02:26:58.282Z,17.27
2022-12-11T02:29:38.143Z,14.63
2022-12-11T02:32:14.055Z,15.07
2022-12-11T02:34:49.915Z,17.50
2022-12-11T02:37:28.350Z,22.95
2022-12-11T02:40:00.244Z,12.45
2022-12-11T02:42:34.456Z,15.07
2022-12-11T02:45:11.230Z,14.32
2022-12-11T02:47:42.715Z,11.93
2022-12-11T02:50:18.520Z,10.32
2022-12-11T02:52:51.080Z,12.88
2022-12-11T02:55:22.482Z,15.98
2022-12-11T02:57:56.276Z,17.33
2022-12-11T03:00:29.474Z,14.57
2022-12-11T03:03:00.447Z,11.57
2022-12-11T03:05:31.054Z,12.68
2022-12-11T03:08:01.654Z,9.88
2022-12-11T03:10:32.349Z,11.20
2022-12-11T03:13:03.941Z,12.98
2022-12-11T03:15:44.765Z,10.85
2022-12-11T03:18:22.030Z,11.00
2022-12-11T03:21:06.011Z,12.43
2022-12-11T03:23:44.607Z,11.82
2022-12-11T03:26:18.547Z,12.15
2022-12-11T03:28:52.638Z,12.57
2022-12-11T03:31:32.695Z,12.48
2022-12-11T03:34:07.496Z,12.02
2022-12-11T03:36:41.243Z,13.32
2022-12-11T03:39:15.922Z,14.80
2022-12-11T03:41:48.696Z,11.75
2022-12-11T03:44:19.842Z,8.35
2022-12-11T03:46:56.315Z,16.88
2022-12-11T03:49:30.329Z,11.57
2022-12-11T03:52:03.465Z,11.77
2022-12-11T03:54:34.568Z,14.43
2022-12-11T03:57:07.175Z,15.40
2022-12-11T03:59:37.657Z,13.27
2022-12-11T04:02:11.206Z,11.25
2022-12-11T04:04:43.114Z,13.68
2022-12-11T04:07:13.594Z,11.10
2022-12-11T04:09:44.090Z,10.98
2022-12-11T04:12:14.661Z,11.60
2022-12-11T04:14:57.688Z,13.68
2022-12-11T04:17:43.342Z,10.30
2022-12-11T04:23:10.031Z,13.80
2022-12-11T04:25:40.812Z,5.97
2022-12-11T04:28:11.704Z,11.93
2022-12-11T04:30:42.320Z,13.73
2022-12-11T04:33:15.636Z,13.18
2022-12-11T04:35:46.219Z,10.88
2022-12-11T04:38:16.934Z,8.20
2022-12-11T04:40:47.631Z,10.52
2022-12-11T04:43:18.290Z,14.23
2022-12-11T04:45:48.855Z,10.55
2022-12-11T04:48:22.177Z,9.77
2022-12-11T04:50:52.909Z,10.27
2022-12-11T04:53:23.540Z,11.38
2022-12-11T04:55:54.125Z,9.75
2022-12-11T04:58:24.919Z,9.38
2022-12-11T05:00:55.897Z,12.05
2022-12-11T05:03:29.141Z,11.10
2022-12-11T05:05:59.667Z,8.57
2022-12-11T05:08:30.347Z,15.13
2022-12-11T05:11:01.704Z,10.30
2022-12-11T05:13:33.108Z,12.95
2022-12-11T05:16:06.283Z,13.23
2022-12-11T05:18:39.769Z,13.27
2022-12-11T05:21:13.214Z,10.68
2022-12-11T05:23:44.613Z,11.45
2022-12-11T05:26:17.277Z,13.18
2022-12-11T05:28:48.615Z,11.27
2022-12-11T05:31:21.350Z,14.38
2022-12-11T05:33:55.155Z,15.00
2022-12-11T05:36:28.551Z,13.73
2022-12-11T05:39:00.762Z,9.43
2022-12-11T05:41:33.900Z,14.57
2022-12-11T05:44:04.583Z,14.65
2022-12-11T05:46:35.926Z,8.25
2022-12-11T05:49:09.354Z,14.10
2022-12-11T05:51:41.481Z,9.75
2022-12-11T05:54:12.783Z,9.88
2022-12-11T05:56:43.374Z,10.20
2022-12-11T05:59:14.014Z,12.55
2022-12-11T06:01:46.230Z,11.70
2022-12-11T06:04:19.697Z,14.23
2022-12-11T06:06:50.224Z,11.52
2022-12-11T06:09:20.873Z,12.13
2022-12-11T06:11:51.403Z,9.73
2022-12-11T06:14:22.018Z,15.65
2022-12-11T06:16:53.171Z,11.18
2022-12-11T06:19:26.494Z,6.60
2022-12-11T06:21:57.042Z,10.82
2022-12-11T06:24:27.746Z,11.30
2022-12-11T06:26:58.554Z,13.60
2022-12-11T06:29:29.257Z,12.82
2022-12-11T06:31:59.845Z,8.27
2022-12-11T06:34:33.107Z,6.30
2022-12-11T06:37:03.891Z,6.60
2022-12-11T06:39:34.752Z,9.05
2022-12-11T06:42:05.287Z,6.60
2022-12-11T06:44:35.937Z,9.95
2022-12-11T06:47:07.218Z,9.45
2022-12-11T06:49:40.546Z,8.90
2022-12-11T06:52:16.590Z,10.10
2022-12-11T06:54:48.764Z,7.28
2022-12-11T06:57:19.909Z,12.18
2022-12-11T06:59:50.435Z,9.90
2022-12-11T07:02:22.754Z,7.78
2022-12-11T07:04:56.088Z,12.18
2022-12-11T07:07:26.736Z,8.80
2022-12-11T07:09:58.654Z,9.02
2022-12-11T07:12:30.936Z,9.15
2022-12-11T07:15:01.462Z,10.32
2022-12-11T07:17:34.540Z,7.53
2022-12-11T07:20:09.537Z,10.88
2022-12-11T07:22:46.212Z,9.45
2022-12-11T07:25:17.804Z,7.80
2022-12-11T07:27:48.441Z,10.13
2022-12-11T07:30:19.576Z,5.68
2022-12-11T07:32:50.236Z,6.40
2022-12-11T07:35:23.547Z,10.85
2022-12-11T07:37:54.174Z,9.15
2022-12-11T07:40:24.717Z,8.70
2022-12-11T07:42:55.345Z,8.30
2022-12-11T07:45:26.622Z,7.63
2022-12-11T07:47:57.284Z,9.65
2022-12-11T07:50:35.113Z,14.98
2022-12-11T07:53:08.764Z,12.38
2022-12-11T07:55:39.362Z,11.27
2022-12-11T07:58:09.974Z,6.68
2022-12-11T08:00:41.226Z,7.65
2022-12-11T08:03:12.009Z,7.38
2022-12-11T08:05:51.160Z,7.25
2022-12-11T08:08:22.843Z,9.38
2022-12-11T08:10:53.673Z,7.57
2022-12-11T08:13:24.306Z,13.43
2022-12-11T08:15:54.962Z,6.10
2022-12-11T08:18:25.829Z,11.23
2022-12-11T08:20:59.054Z,7.07
2022-12-11T08:23:29.825Z,5.20
2022-12-11T08:26:00.560Z,5.07
2022-12-11T08:28:31.248Z,8.13
2022-12-11T08:31:02.302Z,9.30
2022-12-11T08:33:33.067Z,9.20
2022-12-11T08:36:10.178Z,6.13
2022-12-11T08:38:40.967Z,11.98
2022-12-11T08:41:13.037Z,6.82
2022-12-11T08:43:44.214Z,7.00
2022-12-11T08:46:16.621Z,12.77
2022-12-11T08:48:47.431Z,8.02
2022-12-11T08:51:23.952Z,5.82
2022-12-11T08:53:54.828Z,5.70
2022-12-11T08:56:25.992Z,7.07
2022-12-11T08:58:57.913Z,6.07
2022-12-11T09:01:29.846Z,3.63
2022-12-11T09:04:00.685Z,6.10
2022-12-11T09:06:35.890Z,7.03
2022-12-11T09:09:07.442Z,5.88
2022-12-11T09:11:40.287Z,5.75
2022-12-11T09:14:11.027Z,5.22
2022-12-11T09:16:43.480Z,10.52
2022-12-11T09:19:17.909Z,7.40
2022-12-11T09:21:51.397Z,8.13
2022-12-11T09:24:21.963Z,6.18
2022-12-11T09:26:52.539Z,5.47
2022-12-11T09:29:23.238Z,15.23
2022-12-11T09:31:54.087Z,12.07
2022-12-11T09:34:29.159Z,19.77
2022-12-11T09:37:02.796Z,5.90
2022-12-11T09:39:33.443Z,6.97
2022-12-11T09:42:11.227Z,8.32
2022-12-11T09:44:46.641Z,6.68
2022-12-11T09:47:25.731Z,5.45
2022-12-11T09:50:05.805Z,6.75
2022-12-11T09:52:43.609Z,8.15
2022-12-11T09:55:19.826Z,9.48
2022-12-11T09:58:02.263Z,6.22
2022-12-11T10:00:41.295Z,9.18
2022-12-11T10:03:34.223Z,10.55
2022-12-11T10:06:10.621Z,5.93
2022-12-11T10:08:50.906Z,6.70
2022-12-11T10:11:55.860Z,8.27
2022-12-11T10:14:36.447Z,11.43
2022-12-11T10:17:14.596Z,8.00
2022-12-11T10:19:46.087Z,12.18
2022-12-11T10:22:22.786Z,8.20
2022-12-11T10:25:15.333Z,6.82
2022-12-11T10:27:46.856Z,5.40
2022-12-11T10:30:20.648Z,6.35
2022-12-11T10:32:56.713Z,10.40
2022-12-11T10:35:37.012Z,8.25
2022-12-11T10:38:18.742Z,6.32
2022-12-11T10:40:55.770Z,6.45
2022-12-11T10:43:36.333Z,6.43
2022-12-11T10:46:08.581Z,6.25
2022-12-11T10:48:49.066Z,7.63
2022-12-11T10:51:20.673Z,6.75
2022-12-11T10:53:54.572Z,9.05
2022-12-11T10:56:35.857Z,8.68
2022-12-11T10:59:07.055Z,7.68
2022-12-11T11:01:37.752Z,7.25
2022-12-11T11:04:17.285Z,11.80
2022-12-11T11:06:47.830Z,8.05
2022-12-11T11:09:33.054Z,7.63
2022-12-11T11:12:08.250Z,14.02
2022-12-11T11:14:39.033Z,8.68
2022-12-11T11:17:17.205Z,8.93
2022-12-11T11:19:51.082Z,11.70
2022-12-11T11:22:24.771Z,7.70
2022-12-11T11:24:58.689Z,10.20
2022-12-11T11:27:37.253Z,11.93
2022-12-11T11:30:20.422Z,9.70
2022-12-11T11:32:54.608Z,11.63
2022-12-11T11:35:28.642Z,14.30
2022-12-11T11:38:08.151Z,11.00
2022-12-11T11:40:44.246Z,15.00
2022-12-11T11:43:29.382Z,17.20
2022-12-11T11:46:06.748Z,10.90
2022-12-11T11:48:47.542Z,12.80
2022-12-11T11:51:24.682Z,13.77
2022-12-11T11:53:58.186Z,12.15
2022-12-11T11:56:31.978Z,14.50
2022-12-11T11:59:16.017Z,15.30
2022-12-11T12:01:47.160Z,10.55
2022-12-11T12:04:18.000Z,12.18
2022-12-11T12:07:06.729Z,16.45
2022-12-11T12:09:48.528Z,10.13
2022-12-11T12:12:34.103Z,11.82
2022-12-11T12:15:19.859Z,11.07
2022-12-11T12:17:56.668Z,16.75
2022-12-11T12:20:39.031Z,11.15
2022-12-11T12:23:36.937Z,11.05
2022-12-11T12:26:17.743Z,15.85
2022-12-11T12:28:57.055Z,16.92
2022-12-11T12:31:52.993Z,10.55
2022-12-11T12:34:34.688Z,9.98
2022-12-11T12:37:15.181Z,13.32
2022-12-11T12:39:52.752Z,13.25
2022-12-11T12:42:33.053Z,17.42
2022-12-11T12:45:15.069Z,10.90
2022-12-11T12:47:53.361Z,17.42
2022-12-11T12:50:27.372Z,15.60
2022-12-11T12:52:59.983Z,14.93
2022-12-11T12:55:33.782Z,11.07
2022-12-11T12:58:06.506Z,10.48
2022-12-11T13:00:39.263Z,10.43
2022-12-11T13:03:20.469Z,10.93
2022-12-11T13:06:01.234Z,12.48
2022-12-11T13:08:36.537Z,10.43
2022-12-11T13:11:10.038Z,9.43
2022-12-11T13:13:42.737Z,14.23
2022-12-11T13:16:29.542Z,12.32
2022-12-11T13:19:02.722Z,13.00
2022-12-11T13:21:36.141Z,9.82
2022-12-11T13:24:27.285Z,12.55
2022-12-11T13:26:58.209Z,9.48
2022-12-11T13:29:36.979Z,10.98
2022-12-11T13:32:24.966Z,12.63
2022-12-11T13:35:00.358Z,17.52
2022-12-11T13:40:06.800Z,11.80
2022-12-11T13:42:41.036Z,12.98
2022-12-11T13:45:22.944Z,17.75
2022-12-11T13:47:53.919Z,22.33
2022-12-11T13:50:32.057Z,21.58
2022-12-11T13:53:05.161Z,9.52
2022-12-11T13:55:37.722Z,14.02
2022-12-11T13:58:19.596Z,11.52
2022-12-11T14:01:01.095Z,12.90
2022-12-11T14:03:32.979Z,9.70
2022-12-11T14:06:06.857Z,8.32
2022-12-11T14:08:39.868Z,10.70
2022-12-11T14:11:10.661Z,7.70
2022-12-11T14:13:43.834Z,10.15
2022-12-11T14:16:24.090Z,8.07
2022-12-11T14:18:56.354Z,8.80
2022-12-11T14:21:29.709Z,8.57
2022-12-11T14:24:03.597Z,10.10
2022-12-11T14:26:36.041Z,7.22
2022-12-11T14:29:07.136Z,7.55
2022-12-11T14:31:42.992Z,6.95
2022-12-11T14:34:18.855Z,8.20
2022-12-11T14:36:52.716Z,5.75
2022-12-11T14:39:29.146Z,8.55
2022-12-11T14:42:05.930Z,7.03
2022-12-11T14:44:46.918Z,7.90
2022-12-11T14:47:22.014Z,5.82
2022-12-11T14:49:58.934Z,6.15
2022-12-11T14:52:36.019Z,15.48
2022-12-11T14:55:10.737Z,7.72
2022-12-11T14:57:46.254Z,8.75
2022-12-11T15:03:02.075Z,6.63
2022-12-11T15:05:40.301Z,8.38
2022-12-11T15:08:27.447Z,6.50
2022-12-11T15:11:07.323Z,7.60
2022-12-11T15:13:40.518Z,3.92
2022-12-11T15:16:11.494Z,5.90
2022-12-11T15:18:44.721Z,7.90
2022-12-11T15:21:16.914Z,5.40
2022-12-11T15:23:55.597Z,6.20
2022-12-11T15:26:38.120Z,9.85
2022-12-11T15:29:23.009Z,7.35
2022-12-11T15:32:02.742Z,8.23
2022-12-11T15:34:38.448Z,6.40
2022-12-11T15:37:22.181Z,8.27
2022-12-11T15:39:56.447Z,6.00
2022-12-11T15:42:30.513Z,6.72
2022-12-11T15:45:03.017Z,8.88
2022-12-11T15:47:35.119Z,8.63
2022-12-11T15:50:16.103Z,9.30
2022-12-11T15:52:47.177Z,6.38
2022-12-11T15:55:21.181Z,9.85
2022-12-11T15:57:55.058Z,9.70
2022-12-11T16:00:27.762Z,6.10
2022-12-11T16:02:59.157Z,4.93
2022-12-11T16:05:30.459Z,8.50
2022-12-11T16:08:01.383Z,5.63
2022-12-11T16:10:34.725Z,4.80
2022-12-11T16:13:05.302Z,6.40
2022-12-11T16:15:35.969Z,5.57
2022-12-11T16:18:08.760Z,7.28
2022-12-11T16:20:41.202Z,9.20
2022-12-11T16:23:13.066Z,11.25
2022-12-11T16:25:48.010Z,19.77
2022-12-11T16:28:22.044Z,9.35
2022-12-11T16:30:52.725Z,6.45
2022-12-11T16:33:23.251Z,11.35
2022-12-11T16:35:55.303Z,7.13
2022-12-11T16:38:25.870Z,9.75
2022-12-11T16:41:06.192Z,7.82
2022-12-11T16:43:38.071Z,9.50
2022-12-11T16:46:10.715Z,6.72
2022-12-11T16:48:51.536Z,6.35
2022-12-11T16:51:23.842Z,8.15
2022-12-11T16:53:56.425Z,7.32
2022-12-11T16:56:31.916Z,7.63
2022-12-11T16:59:10.631Z,4.97
2022-12-11T17:01:42.415Z,7.10
2022-12-11T17:04:13.476Z,7.35
2022-12-11T17:06:44.498Z,5.95
2022-12-11T17:09:15.068Z,6.93
2022-12-11T17:11:48.324Z,6.53
2022-12-11T17:14:19.068Z,9.13
2022-12-11T17:16:49.891Z,5.60
2022-12-11T17:19:20.915Z,7.47
2022-12-11T17:21:51.967Z,7.57
2022-12-11T17:24:22.605Z,6.88
2022-12-11T17:26:56.173Z,10.93
2022-12-11T17:29:27.650Z,4.65
2022-12-11T17:31:59.146Z,7.65
2022-12-11T17:34:36.077Z,8.32
2022-12-11T17:37:09.466Z,11.40
2022-12-11T17:39:40.634Z,19.98
2022-12-11T17:42:14.075Z,13.63
2022-12-11T17:44:45.659Z,11.55
2022-12-11T17:47:16.351Z,15.57
2022-12-11T17:49:46.991Z,13.85
2022-12-11T17:52:17.791Z,9.57
2022-12-11T17:54:48.509Z,10.15
2022-12-11T17:57:22.045Z,10.02
2022-12-11T17:59:52.736Z,8.82
2022-12-11T18:02:23.397Z,8.20
2022-12-11T18:04:55.298Z,7.32
2022-12-11T18:07:26.021Z,10.95
2022-12-11T18:09:56.736Z,10.95
2022-12-11T18:12:31.254Z,11.23
2022-12-11T18:15:03.126Z,11.52
2022-12-11T18:17:35.746Z,9.82
2022-12-11T18:20:07.764Z,9.35
2022-12-11T18:22:38.476Z,9.98
2022-12-11T18:25:12.120Z,14.30
2022-12-11T18:27:46.098Z,11.55
2022-12-11T18:30:17.411Z,15.23
2022-12-11T18:32:48.965Z,20.23
2022-12-11T18:35:20.155Z,16.88
2022-12-11T18:37:50.871Z,13.43
2022-12-11T18:40:21.724Z,11.05
2022-12-11T18:42:55.153Z,10.85
2022-12-11T18:45:25.735Z,9.05
2022-12-11T18:47:56.774Z,13.02
2022-12-11T18:50:29.538Z,12.50
2022-12-11T18:53:01.348Z,10.48
2022-12-11T18:55:31.977Z,13.38
2022-12-11T18:58:05.310Z,8.40
2022-12-11T19:00:37.542Z,11.60
2022-12-11T19:03:08.245Z,8.77
2022-12-11T19:05:42.650Z,8.45
2022-12-11T19:08:16.636Z,6.80
2022-12-11T19:10:48.502Z,8.48
2022-12-11T19:13:21.753Z,6.80
2022-12-11T19:15:52.474Z,8.57
2022-12-11T19:18:24.599Z,7.90
2022-12-11T19:21:04.896Z,8.50
2022-12-11T19:23:39.364Z,8.98
2022-12-11T19:26:13.606Z,8.13
2022-12-11T19:28:47.399Z,6.40
2022-12-11T19:31:20.477Z,9.45
2022-12-11T19:33:51.136Z,5.93
2022-12-11T19:36:24.602Z,6.63
2022-12-11T19:39:01.464Z,8.48
2022-12-11T19:41:34.681Z,9.15
2022-12-11T19:44:08.109Z,6.78
2022-12-11T19:46:39.116Z,6.00
2022-12-11T19:49:09.877Z,4.68
2022-12-11T19:51:44.089Z,3.20
2022-12-11T19:54:17.002Z,4.32
2022-12-11T19:56:48.300Z,6.13
2022-12-11T19:59:21.833Z,7.07
2022-12-11T20:01:52.497Z,6.75
2022-12-11T20:04:23.314Z,7.65
2022-12-11T20:06:54.324Z,9.13
2022-12-11T20:09:25.497Z,11.07
2022-12-11T20:11:56.336Z,8.52
2022-12-11T20:14:30.267Z,8.52
2022-12-11T20:17:13.312Z,7.68
2022-12-11T20:19:45.144Z,9.50
2022-12-11T20:22:15.723Z,11.55
2022-12-11T20:24:46.373Z,9.38
2022-12-11T20:27:16.930Z,9.80
2022-12-11T20:29:50.336Z,12.07
2022-12-11T20:32:21.060Z,9.43
2022-12-11T20:34:51.624Z,9.40
2022-12-11T20:37:22.078Z,8.50
2022-12-11T20:39:52.680Z,7.22
2022-12-11T20:42:23.223Z,6.85
2022-12-11T20:44:56.991Z,8.02
2022-12-11T20:47:27.563Z,9.80
2022-12-11T20:49:58.225Z,9.20
2022-12-11T20:52:29.471Z,13.23
2022-12-11T20:55:00.072Z,9.40
2022-12-11T20:57:30.883Z,12.90
2022-12-11T21:00:04.280Z,12.15
2022-12-11T21:02:36.129Z,8.57
2022-12-11T21:05:06.991Z,8.25
2022-12-11T21:07:37.572Z,5.32
2022-12-11T21:10:09.201Z,7.45
2022-12-11T21:12:39.923Z,10.70
2022-12-11T21:15:14.561Z,7.13
2022-12-11T21:17:45.303Z,6.63
2022-12-11T21:20:16.035Z,6.68
2022-12-11T21:22:46.740Z,6.55
2022-12-11T21:25:18.071Z,6.72
2022-12-11T21:27:48.712Z,8.20
2022-12-11T21:30:22.696Z,8.90
2022-12-11T21:32:53.483Z,8.35
2022-12-11T21:35:24.687Z,7.40
2022-12-11T21:37:55.218Z,7.78
2022-12-11T21:40:25.807Z,7.20
2022-12-11T21:42:56.462Z,5.32
2022-12-11T21:45:59.872Z,4.70
2022-12-11T21:48:20.418Z,5.43
2022-12-11T21:50:51.534Z,5.43
2022-12-11T21:53:22.217Z,5.25
2022-12-11T21:55:52.881Z,6.65
2022-12-11T21:58:23.462Z,5.38
2022-12-11T22:00:56.829Z,5.38
2022-12-11T22:03:27.586Z,5.38
2022-12-11T22:05:58.381Z,5.90
2022-12-11T22:08:28.989Z,9.32
2022-12-11T22:11:01.257Z,6.68
2022-12-11T22:13:31.946Z,5.55
2022-12-11T22:16:05.565Z,5.07
2022-12-11T22:18:36.182Z,5.68
2022-12-11T22:21:07.141Z,4.43
2022-12-11T22:23:37.707Z,5.40
2022-12-11T22:26:08.486Z,8.35
2022-12-11T22:28:39.073Z,4.15
2022-12-11T22:31:13.328Z,4.50
2022-12-11T22:33:44.221Z,3.15
2022-12-11T22:36:15.390Z,4.10
2022-12-11T22:38:46.333Z,6.75
2022-12-11T22:41:22.307Z,4.18
2022-12-11T22:43:53.570Z,4.05
2022-12-11T22:46:28.840Z,3.47
2022-12-11T22:49:00.676Z,3.22
2022-12-11T22:51:31.465Z,2.55
2022-12-11T22:54:02.587Z,3.10
2022-12-11T22:56:33.206Z,4.47
2022-12-11T22:59:03.790Z,3.58
2022-12-11T23:01:37.223Z,4.80
2022-12-11T23:04:08.202Z,4.85
2022-12-11T23:06:38.924Z,4.13
2022-12-11T23:09:09.670Z,4.35
2022-12-11T23:11:41.716Z,4.05
2022-12-11T23:14:16.857Z,3.78
2022-12-11T23:16:50.171Z,4.63
2022-12-11T23:19:25.437Z,6.25
2022-12-11T23:21:56.842Z,10.18
2022-12-11T23:24:27.472Z,10.50
2022-12-11T23:26:58.133Z,10.98
2022-12-11T23:29:28.786Z,9.60
2022-12-11T23:32:02.046Z,8.43
2022-12-11T23:34:32.875Z,8.77
2022-12-11T23:37:03.615Z,7.70
2022-12-11T23:39:35.112Z,7.13
2022-12-11T23:42:05.807Z,8.45
2022-12-11T23:44:36.422Z,11.25
2022-12-11T23:47:09.635Z,11.50
2022-12-11T23:49:40.106Z,17.15
2022-12-11T23:52:12.493Z,19.10
2022-12-11T23:54:43.066Z,18.60
2022-12-11T23:57:13.896Z,21.75
2022-12-11T23:59:44.807Z,12.98
